createdAt,value
2017-11-24T00:01:19.297Z,73.96
2017-11-24T00:03:46.804Z,74.15
2017-11-24T00:06:14.354Z,74.26
2017-11-24T00:08:41.908Z,74.45
2017-11-24T00:11:09.400Z,74.53
2017-11-24T00:13:36.941Z,75.10
2017-11-24T00:16:04.441Z,75.15
2017-11-24T00:18:31.950Z,75.31
2017-11-24T00:20:59.501Z,75.68
2017-11-24T00:23:26.985Z,76.05
2017-11-24T00:25:54.471Z,76.32
2017-11-24T00:28:21.996Z,76.63
2017-11-24T00:30:49.489Z,76.93
2017-11-24T00:33:17.016Z,77.36
2017-11-24T00:35:44.511Z,77.60
2017-11-24T00:38:12.003Z,77.69
2017-11-24T00:40:39.559Z,78.09
2017-11-24T00:43:07.056Z,78.04
2017-11-24T00:45:34.557Z,77.88
2017-11-24T00:48:02.092Z,77.78
2017-11-24T00:50:29.591Z,77.59
2017-11-24T00:52:57.090Z,77.44
2017-11-24T00:55:24.700Z,77.44
2017-11-24T00:57:52.204Z,77.50
2017-11-24T01:00:19.728Z,77.70
2017-11-24T01:02:47.246Z,77.92
2017-11-24T01:05:14.774Z,77.82
2017-11-24T01:07:42.298Z,77.61
2017-11-24T01:10:09.863Z,77.43
2017-11-24T01:12:37.401Z,77.34
2017-11-24T01:15:04.923Z,77.44
2017-11-24T01:17:32.413Z,77.26
2017-11-24T01:19:59.932Z,77.14
2017-11-24T01:22:27.462Z,77.11
2017-11-24T01:24:54.958Z,77.17
2017-11-24T01:27:22.493Z,77.15
2017-11-24T01:29:49.980Z,77.17
2017-11-24T01:32:17.582Z,77.29
2017-11-24T01:34:45.140Z,77.13
2017-11-24T01:37:12.715Z,76.84
2017-11-24T01:39:40.214Z,76.94
2017-11-24T01:42:07.736Z,76.76
2017-11-24T01:44:35.277Z,76.77
2017-11-24T01:47:02.777Z,76.74
2017-11-24T01:49:30.295Z,76.64
2017-11-24T01:51:57.812Z,76.60
2017-11-24T01:54:25.399Z,76.57
2017-11-24T01:56:52.890Z,76.57
2017-11-24T01:59:20.754Z,76.61
2017-11-24T02:01:48.260Z,76.81
2017-11-24T02:04:15.759Z,76.76
2017-11-24T02:06:43.290Z,76.64
2017-11-24T02:09:10.814Z,76.44
2017-11-24T02:11:38.311Z,76.60
2017-11-24T02:14:05.826Z,76.42
2017-11-24T02:16:33.347Z,76.63
2017-11-24T02:19:00.854Z,76.54
2017-11-24T02:21:28.353Z,76.64
2017-11-24T02:23:55.917Z,76.64
2017-11-24T02:26:23.425Z,76.56
2017-11-24T02:28:50.965Z,76.70
2017-11-24T02:31:18.461Z,76.74
2017-11-24T02:33:45.969Z,76.80
2017-11-24T02:36:13.510Z,76.73
2017-11-24T02:38:41.011Z,76.67
2017-11-24T02:41:08.512Z,76.83
2017-11-24T02:43:36.029Z,76.83
2017-11-24T02:46:03.545Z,76.80
2017-11-24T02:48:31.080Z,76.65
2017-11-24T02:50:58.598Z,76.57
2017-11-24T02:53:26.156Z,76.71
2017-11-24T02:55:53.690Z,76.78
2017-11-24T02:58:21.206Z,76.83
2017-11-24T03:00:48.707Z,76.94
2017-11-24T03:03:16.230Z,77.03
2017-11-24T03:05:43.721Z,77.23
2017-11-24T03:08:11.263Z,77.20
2017-11-24T03:10:38.791Z,77.18
2017-11-24T03:13:06.324Z,77.11
2017-11-24T03:15:33.861Z,77.15
2017-11-24T03:20:35.167Z,77.17
2017-11-24T03:23:02.652Z,77.11
2017-11-24T03:25:30.312Z,77.34
2017-11-24T03:27:57.839Z,77.15
2017-11-24T03:30:25.374Z,77.04
2017-11-24T03:32:52.878Z,77.07
2017-11-24T03:35:20.463Z,77.17
2017-11-24T03:37:47.988Z,77.15
2017-11-24T03:40:15.493Z,77.05
2017-11-24T03:42:43.003Z,77.32
2017-11-24T03:45:10.535Z,77.34
2017-11-24T03:47:38.061Z,76.79
2017-11-24T03:50:05.554Z,76.92
2017-11-24T03:52:33.087Z,77.49
2017-11-24T03:55:00.584Z,78.14
2017-11-24T03:57:28.084Z,78.35
2017-11-24T03:59:55.588Z,78.78
2017-11-24T04:02:23.099Z,78.80
2017-11-24T04:04:50.680Z,78.95
2017-11-24T04:07:18.206Z,78.70
2017-11-24T04:09:45.697Z,78.56
2017-11-24T04:12:13.185Z,78.71
2017-11-24T04:14:40.705Z,78.71
2017-11-24T04:17:08.206Z,78.84
2017-11-24T04:19:35.712Z,78.98
2017-11-24T04:22:03.386Z,78.98
2017-11-24T04:24:30.896Z,79.18
2017-11-24T04:26:58.507Z,79.16
2017-11-24T04:29:26.031Z,79.47
2017-11-24T04:31:53.526Z,79.44
2017-11-24T04:34:21.017Z,79.45
2017-11-24T04:36:48.536Z,79.67
2017-11-24T04:39:16.045Z,79.94
2017-11-24T04:41:43.544Z,80.27
2017-11-24T04:44:11.198Z,80.78
2017-11-24T04:46:38.696Z,80.88
2017-11-24T04:49:06.196Z,81.04
2017-11-24T04:51:33.717Z,80.71
2017-11-24T04:54:01.248Z,80.61
2017-11-24T04:56:28.745Z,80.27
2017-11-24T04:58:56.244Z,80.16
2017-11-24T05:01:23.773Z,80.08
2017-11-24T05:03:51.304Z,80.10
2017-11-24T05:06:18.793Z,80.10
2017-11-24T05:08:46.333Z,79.94
2017-11-24T05:11:13.866Z,79.79
2017-11-24T05:13:41.363Z,79.69
2017-11-24T05:16:08.906Z,79.73
2017-11-24T05:18:36.402Z,79.77
2017-11-24T05:21:03.913Z,79.92
2017-11-24T05:23:31.528Z,79.94
2017-11-24T05:25:59.111Z,79.96
2017-11-24T05:28:26.667Z,79.85
2017-11-24T05:30:54.192Z,79.88
2017-11-24T05:33:21.768Z,80.10
2017-11-24T05:35:49.265Z,80.36
2017-11-24T05:38:16.792Z,80.52
2017-11-24T05:40:44.324Z,80.57
2017-11-24T05:43:11.825Z,80.62
2017-11-24T05:45:39.308Z,80.66
2017-11-24T05:48:06.850Z,80.82
2017-11-24T05:50:34.340Z,80.73
2017-11-24T05:53:01.853Z,80.41
2017-11-24T05:55:29.382Z,80.07
2017-11-24T05:57:56.883Z,80.04
2017-11-24T06:00:25.058Z,79.98
2017-11-24T06:02:52.610Z,79.89
2017-11-24T06:05:20.118Z,79.94
2017-11-24T06:07:47.631Z,79.57
2017-11-24T06:10:15.177Z,79.55
2017-11-24T06:12:42.679Z,79.54
2017-11-24T06:15:10.180Z,79.56
2017-11-24T06:17:37.729Z,79.63
2017-11-24T06:20:05.232Z,79.72
2017-11-24T06:22:32.724Z,79.54
2017-11-24T06:25:00.265Z,79.50
2017-11-24T06:27:27.765Z,79.43
2017-11-24T06:29:55.259Z,79.45
2017-11-24T06:32:22.801Z,79.47
2017-11-24T06:34:50.316Z,79.63
2017-11-24T06:37:17.817Z,79.69
2017-11-24T06:39:45.354Z,79.94
2017-11-24T06:42:12.852Z,79.57
2017-11-24T06:44:40.342Z,79.70
2017-11-24T06:47:07.865Z,79.60
2017-11-24T06:49:35.393Z,79.68
2017-11-24T06:52:02.888Z,79.66
2017-11-24T06:54:30.419Z,79.77
2017-11-24T06:56:58.183Z,79.72
2017-11-24T06:59:25.679Z,79.65
2017-11-24T07:01:53.164Z,79.38
2017-11-24T07:04:20.694Z,79.52
2017-11-24T07:06:48.184Z,79.05
2017-11-24T07:09:15.676Z,78.72
2017-11-24T07:11:43.244Z,78.70
2017-11-24T07:14:10.729Z,78.48
2017-11-24T07:16:38.261Z,78.46
2017-11-24T07:19:05.741Z,78.28
2017-11-24T07:21:33.232Z,78.23
2017-11-24T07:24:00.764Z,78.06
2017-11-24T07:26:28.253Z,78.00
2017-11-24T07:28:55.753Z,78.07
2017-11-24T07:31:23.270Z,77.88
2017-11-24T07:33:50.761Z,77.79
2017-11-24T07:36:18.326Z,77.60
2017-11-24T07:38:45.835Z,77.38
2017-11-24T07:41:13.332Z,77.02
2017-11-24T07:43:40.880Z,76.79
2017-11-24T07:46:08.376Z,76.36
2017-11-24T07:48:35.870Z,76.13
2017-11-24T07:51:03.425Z,76.08
2017-11-24T07:53:30.922Z,75.94
2017-11-24T07:55:58.414Z,76.24
2017-11-24T07:58:25.963Z,76.06
2017-11-24T08:00:53.585Z,76.00
2017-11-24T08:03:21.088Z,75.96
2017-11-24T08:05:48.604Z,76.04
2017-11-24T08:08:16.144Z,75.51
2017-11-24T08:10:43.634Z,75.30
2017-11-24T08:13:11.127Z,75.16
2017-11-24T08:15:38.650Z,75.20
2017-11-24T08:18:06.154Z,75.10
2017-11-24T08:20:33.758Z,75.08
2017-11-24T08:23:01.250Z,74.85
2017-11-24T08:25:28.746Z,74.66
2017-11-24T08:27:56.278Z,74.23
2017-11-24T08:30:23.769Z,74.21
2017-11-24T08:32:51.256Z,74.26
2017-11-24T08:35:18.793Z,74.25
2017-11-24T08:37:46.309Z,74.24
2017-11-24T08:40:13.810Z,74.48
2017-11-24T08:42:41.330Z,74.65
2017-11-24T08:45:08.828Z,74.83
2017-11-24T08:47:41.859Z,74.62
2017-11-24T08:50:09.348Z,74.29
2017-11-24T08:52:36.881Z,74.17
2017-11-24T08:55:04.392Z,74.09
2017-11-24T08:57:31.897Z,73.95
2017-11-24T08:59:59.413Z,73.88
2017-11-24T09:02:26.900Z,73.50
2017-11-24T09:04:54.413Z,73.42
2017-11-24T09:07:21.898Z,73.40
2017-11-24T09:09:49.427Z,73.06
2017-11-24T09:12:16.922Z,72.87
2017-11-24T09:14:44.408Z,72.67
2017-11-24T09:17:11.940Z,72.62
2017-11-24T09:19:39.440Z,72.50
2017-11-24T09:22:06.964Z,72.51
2017-11-24T09:24:34.510Z,72.22
2017-11-24T09:27:02.004Z,71.96
2017-11-24T09:29:29.496Z,71.52
2017-11-24T09:31:57.015Z,71.59
2017-11-24T09:34:24.515Z,71.63
2017-11-24T09:36:52.009Z,71.08
2017-11-24T09:39:19.528Z,70.59
2017-11-24T09:41:47.071Z,69.81
2017-11-24T09:44:14.565Z,69.50
2017-11-24T09:46:42.159Z,69.17
2017-11-24T09:49:09.685Z,69.05
2017-11-24T09:51:37.186Z,68.96
2017-11-24T09:54:04.672Z,68.50
2017-11-24T09:56:32.207Z,68.56
2017-11-24T09:58:59.693Z,68.04
2017-11-24T10:01:27.181Z,67.86
2017-11-24T10:03:54.738Z,67.77
2017-11-24T10:06:22.245Z,67.43
2017-11-24T10:08:49.741Z,67.10
2017-11-24T10:11:17.283Z,66.72
2017-11-24T10:13:44.844Z,66.43
2017-11-24T10:16:12.342Z,66.31
2017-11-24T10:18:39.866Z,65.88
2017-11-24T10:21:12.927Z,65.85
2017-11-24T10:23:40.542Z,65.61
2017-11-24T10:26:08.036Z,65.51
2017-11-24T10:28:35.537Z,65.30
2017-11-24T10:31:03.065Z,65.07
2017-11-24T10:33:30.561Z,64.69
2017-11-24T10:35:58.123Z,64.47
2017-11-24T10:38:25.669Z,64.17
2017-11-24T10:40:53.162Z,64.10
2017-11-24T10:43:20.657Z,63.73
2017-11-24T10:45:48.198Z,63.50
2017-11-24T10:48:15.687Z,63.22
2017-11-24T10:50:43.191Z,63.07
2017-11-24T10:53:10.728Z,63.22
2017-11-24T10:55:38.220Z,63.06
2017-11-24T10:58:05.716Z,63.19
2017-11-24T11:00:33.255Z,63.00
2017-11-24T11:03:00.765Z,63.08
2017-11-24T11:05:28.325Z,62.83
2017-11-24T11:07:55.885Z,63.01
2017-11-24T11:10:23.388Z,63.02
2017-11-24T11:12:50.880Z,63.26
2017-11-24T11:15:18.478Z,63.18
2017-11-24T11:17:45.968Z,62.98
2017-11-24T11:20:13.484Z,62.89
2017-11-24T11:22:41.016Z,63.09
2017-11-24T11:25:08.590Z,63.33
2017-11-24T11:27:36.073Z,63.70
2017-11-24T11:30:03.594Z,63.77
2017-11-24T11:32:31.124Z,63.86
2017-11-24T11:34:58.635Z,63.78
2017-11-24T11:37:26.133Z,63.68
2017-11-24T11:39:53.684Z,63.47
2017-11-24T11:42:21.160Z,63.51
2017-11-24T11:44:48.652Z,63.08
2017-11-24T11:47:16.199Z,63.50
2017-11-24T11:49:43.719Z,63.64
2017-11-24T11:52:11.229Z,63.96
2017-11-24T11:54:38.756Z,64.36
2017-11-24T11:57:06.266Z,64.42
2017-11-24T11:59:33.816Z,64.65
2017-11-24T12:02:01.309Z,64.70
2017-11-24T12:04:28.839Z,64.91
2017-11-24T12:06:56.364Z,65.00
2017-11-24T12:09:23.860Z,65.36
2017-11-24T12:11:51.353Z,65.40
2017-11-24T12:14:18.877Z,65.74
2017-11-24T12:16:46.368Z,65.87
2017-11-24T12:19:13.918Z,66.16
2017-11-24T12:21:41.439Z,66.08
2017-11-24T12:24:08.927Z,66.03
2017-11-24T12:26:36.451Z,65.88
2017-11-24T12:29:04.027Z,65.62
2017-11-24T12:31:31.525Z,65.24
2017-11-24T12:33:59.048Z,65.38
2017-11-24T12:36:26.528Z,65.58
2017-11-24T12:38:54.048Z,65.97
2017-11-24T12:41:21.573Z,66.23
2017-11-24T12:43:49.105Z,66.50
2017-11-24T12:46:16.635Z,66.58
2017-11-24T12:48:44.196Z,66.72
2017-11-24T12:51:11.726Z,67.07
2017-11-24T12:53:39.269Z,67.12
2017-11-24T12:56:06.777Z,67.52
2017-11-24T12:58:34.273Z,67.70
2017-11-24T13:01:01.814Z,67.75
2017-11-24T13:03:29.316Z,67.91
2017-11-24T13:05:56.808Z,68.22
2017-11-24T13:08:24.325Z,71.02
2017-11-24T13:10:51.841Z,73.62
2017-11-24T13:13:19.330Z,75.61
2017-11-24T13:15:46.818Z,77.06
2017-11-24T13:18:14.376Z,77.99
2017-11-24T13:20:41.869Z,78.60
2017-11-24T13:23:09.408Z,78.26
2017-11-24T13:25:36.977Z,78.53
2017-11-24T13:28:04.535Z,79.73
2017-11-24T13:30:32.072Z,80.55
2017-11-24T13:32:59.639Z,80.88
2017-11-24T13:35:27.134Z,81.26
2017-11-24T13:37:54.753Z,81.45
2017-11-24T13:40:22.245Z,82.09
2017-11-24T13:42:49.750Z,82.55
2017-11-24T13:45:17.284Z,83.36
2017-11-24T13:47:44.774Z,83.28
2017-11-24T13:50:12.265Z,83.76
2017-11-24T13:52:39.778Z,84.58
2017-11-24T13:55:07.273Z,84.77
2017-11-24T13:57:34.881Z,84.63
2017-11-24T14:00:02.389Z,85.30
2017-11-24T14:02:29.888Z,85.28
2017-11-24T14:04:57.414Z,84.98
2017-11-24T14:07:24.927Z,85.13
2017-11-24T14:09:52.435Z,85.82
2017-11-24T14:12:19.972Z,86.20
2017-11-24T14:14:47.465Z,86.58
2017-11-24T14:17:14.984Z,86.79
2017-11-24T14:19:42.509Z,87.18
2017-11-24T14:22:10.013Z,86.74
2017-11-24T14:24:37.528Z,86.75
2017-11-24T14:27:05.240Z,85.59
2017-11-24T14:29:32.723Z,85.33
2017-11-24T14:32:00.216Z,85.78
2017-11-24T14:34:27.739Z,85.88
2017-11-24T14:36:55.295Z,86.27
2017-11-24T14:39:22.785Z,86.04
2017-11-24T14:41:50.289Z,86.27
2017-11-24T14:44:17.845Z,86.20
2017-11-24T14:46:45.370Z,85.51
2017-11-24T14:49:12.867Z,85.76
2017-11-24T14:51:40.372Z,85.08
2017-11-24T14:54:07.960Z,85.00
2017-11-24T14:56:35.465Z,85.41
2017-11-24T14:59:02.968Z,85.42
2017-11-24T15:01:30.540Z,84.08
2017-11-24T15:03:58.033Z,84.07
2017-11-24T15:06:25.660Z,84.13
2017-11-24T15:08:53.154Z,84.23
2017-11-24T15:11:20.646Z,84.06
2017-11-24T15:13:48.186Z,83.56
2017-11-24T15:16:15.736Z,83.69
2017-11-24T15:18:43.237Z,84.28
2017-11-24T15:21:10.758Z,84.70
2017-11-24T15:23:38.272Z,84.61
2017-11-24T15:26:05.804Z,84.54
2017-11-24T15:28:33.292Z,85.25
2017-11-24T15:31:00.781Z,83.82
2017-11-24T15:33:28.326Z,83.98
2017-11-24T15:35:55.809Z,83.84
2017-11-24T15:38:23.301Z,84.15
2017-11-24T15:40:50.832Z,84.34
2017-11-24T15:43:18.338Z,84.20
2017-11-24T15:45:45.824Z,84.57
2017-11-24T15:48:13.364Z,84.71
2017-11-24T15:50:40.870Z,84.32
2017-11-24T15:53:08.375Z,84.30
2017-11-24T15:55:35.900Z,84.62
2017-11-24T15:58:03.399Z,84.98
2017-11-24T16:00:30.890Z,85.54
2017-11-24T16:02:58.419Z,85.53
2017-11-24T16:05:25.905Z,86.30
2017-11-24T16:07:53.393Z,87.15
2017-11-24T16:10:20.921Z,87.49
2017-11-24T16:12:48.415Z,87.73
2017-11-24T16:15:15.925Z,87.66
2017-11-24T16:17:43.468Z,88.69
2017-11-24T16:20:10.966Z,88.28
2017-11-24T16:22:38.461Z,88.70
2017-11-24T16:25:05.994Z,88.20
2017-11-24T16:27:33.490Z,87.31
2017-11-24T16:30:00.988Z,88.72
2017-11-24T16:32:28.511Z,87.80
2017-11-24T16:34:56.053Z,88.52
2017-11-24T16:37:23.545Z,89.30
2017-11-24T16:39:51.073Z,88.27
2017-11-24T16:42:18.570Z,88.40
2017-11-24T16:44:46.059Z,88.62
2017-11-24T16:47:13.950Z,87.27
2017-11-24T16:49:41.528Z,87.80
2017-11-24T16:52:09.018Z,88.16
2017-11-24T16:54:36.524Z,87.43
2017-11-24T16:57:04.016Z,87.48
2017-11-24T16:59:31.548Z,87.21
2017-11-24T17:01:59.120Z,87.71
2017-11-24T17:04:26.619Z,88.03
2017-11-24T17:06:54.148Z,88.06
2017-11-24T17:09:21.658Z,88.24
2017-11-24T17:11:49.151Z,87.98
2017-11-24T17:14:16.693Z,88.45
2017-11-24T17:16:45.072Z,87.60
2017-11-24T17:19:12.565Z,87.72
2017-11-24T17:21:40.107Z,87.35
2017-11-24T17:24:07.627Z,87.91
2017-11-24T17:26:35.118Z,88.20
2017-11-24T17:29:02.659Z,87.98
2017-11-24T17:31:30.152Z,88.46
2017-11-24T17:33:57.754Z,87.56
2017-11-24T17:36:25.304Z,88.10
2017-11-24T17:38:52.915Z,88.35
2017-11-24T17:41:20.413Z,87.83
2017-11-24T17:43:48.140Z,87.39
2017-11-24T17:46:15.637Z,87.41
2017-11-24T17:48:43.140Z,87.26
2017-11-24T17:51:10.698Z,86.67
2017-11-24T17:53:38.193Z,87.15
2017-11-24T17:56:05.708Z,87.59
2017-11-24T17:58:33.238Z,87.96
2017-11-24T18:01:00.787Z,87.83
2017-11-24T18:03:28.285Z,87.79
2017-11-24T18:05:55.812Z,87.05
2017-11-24T18:08:23.407Z,87.60
2017-11-24T18:10:50.913Z,87.03
2017-11-24T18:13:18.426Z,87.61
2017-11-24T18:15:46.011Z,88.10
2017-11-24T18:18:13.513Z,88.19
2017-11-24T18:20:41.123Z,88.61
2017-11-24T18:23:08.652Z,88.94
2017-11-24T18:25:36.141Z,89.59
2017-11-24T18:28:03.926Z,89.59
2017-11-24T18:30:31.523Z,90.04
2017-11-24T18:32:59.184Z,90.12
2017-11-24T18:35:26.891Z,90.20
2017-11-24T18:37:54.481Z,90.04
2017-11-24T18:40:22.115Z,89.80
2017-11-24T18:42:49.654Z,89.78
2017-11-24T18:45:17.189Z,89.81
2017-11-24T18:47:44.695Z,89.87
2017-11-24T18:50:12.558Z,90.18
2017-11-24T18:52:40.188Z,89.88
2017-11-24T18:55:07.716Z,89.50
2017-11-24T18:57:35.220Z,89.49
2017-11-24T19:00:02.995Z,89.75
2017-11-24T19:02:30.540Z,89.30
2017-11-24T19:04:58.180Z,89.58
2017-11-24T19:07:25.831Z,89.75
2017-11-24T19:09:53.342Z,89.74
2017-11-24T19:12:20.860Z,89.10
2017-11-24T19:14:48.398Z,89.26
2017-11-24T19:17:15.911Z,88.86
2017-11-24T19:19:43.406Z,89.68
2017-11-24T19:22:11.048Z,89.59
2017-11-24T19:24:38.679Z,89.34
2017-11-24T19:27:06.189Z,89.32
2017-11-24T19:29:33.782Z,89.58
2017-11-24T19:32:01.520Z,89.53
2017-11-24T19:34:29.041Z,89.80
2017-11-24T19:36:56.585Z,90.02
2017-11-24T19:39:24.201Z,90.16
2017-11-24T19:41:51.810Z,90.17
2017-11-24T19:44:19.383Z,89.92
2017-11-24T19:46:47.153Z,90.03
2017-11-24T19:49:14.663Z,90.08
2017-11-24T19:51:42.238Z,90.18
2017-11-24T19:54:09.739Z,90.43
2017-11-24T19:56:37.410Z,90.06
2017-11-24T19:59:05.000Z,90.34
2017-11-24T20:01:32.511Z,90.95
2017-11-24T20:04:00.309Z,90.72
2017-11-24T20:06:27.840Z,91.05
2017-11-24T20:08:55.382Z,90.93
2017-11-24T20:11:22.889Z,91.31
2017-11-24T20:13:50.453Z,91.62
2017-11-24T20:16:17.950Z,91.94
2017-11-24T20:18:45.544Z,91.84
2017-11-24T20:21:13.107Z,92.04
2017-11-24T20:23:40.608Z,92.40
2017-11-24T20:26:08.109Z,92.68
2017-11-24T20:28:36.466Z,92.90
2017-11-24T20:31:04.027Z,92.76
2017-11-24T20:33:31.534Z,92.63
2017-11-24T20:35:59.071Z,92.92
2017-11-24T20:38:26.595Z,92.88
2017-11-24T20:41:05.026Z,92.26
2017-11-24T20:43:33.244Z,92.09
2017-11-24T20:46:00.745Z,92.16
2017-11-24T20:48:28.294Z,92.27
2017-11-24T20:50:55.795Z,92.27
2017-11-24T20:53:23.291Z,91.85
2017-11-24T20:55:50.813Z,91.67
2017-11-24T20:58:18.341Z,93.12
2017-11-24T21:00:45.828Z,92.14
2017-11-24T21:03:13.356Z,90.71
2017-11-24T21:05:40.876Z,90.76
2017-11-24T21:08:08.381Z,91.15
2017-11-24T21:10:35.916Z,91.71
2017-11-24T21:13:03.424Z,91.55
2017-11-24T21:15:30.954Z,92.14
2017-11-24T21:17:58.458Z,91.99
2017-11-24T21:20:25.971Z,92.38
2017-11-24T21:22:53.505Z,92.55
2017-11-24T21:25:21.077Z,92.75
2017-11-24T21:27:48.572Z,92.57
2017-11-24T21:30:16.070Z,92.54
2017-11-24T21:32:43.695Z,92.90
2017-11-24T21:35:11.200Z,92.50
2017-11-24T21:37:38.715Z,92.47
2017-11-24T21:40:06.268Z,92.38
2017-11-24T21:42:33.770Z,92.12
2017-11-24T21:45:01.293Z,92.17
2017-11-24T21:47:28.828Z,92.45
2017-11-24T21:49:56.366Z,93.33
2017-11-24T21:52:23.923Z,92.66
2017-11-24T21:54:51.456Z,92.64
2017-11-24T21:57:18.968Z,92.70
2017-11-24T21:59:46.483Z,92.42
2017-11-24T22:02:14.084Z,92.48
2017-11-24T22:04:41.576Z,92.64
2017-11-24T22:07:09.071Z,92.66
2017-11-24T22:09:36.634Z,92.55
2017-11-24T22:12:04.129Z,92.73
2017-11-24T22:14:31.697Z,93.31
2017-11-24T22:16:59.212Z,92.22
2017-11-24T22:19:26.702Z,92.09
2017-11-24T22:21:54.330Z,92.28
2017-11-24T22:24:21.817Z,91.75
2017-11-24T22:26:49.314Z,91.85
2017-11-24T22:29:16.829Z,91.83
2017-11-24T22:31:44.373Z,92.04
2017-11-24T22:34:11.865Z,91.91
2017-11-24T22:36:39.399Z,91.68
2017-11-24T22:39:06.937Z,92.33
2017-11-24T22:41:34.433Z,91.97
2017-11-24T22:44:01.926Z,92.07
2017-11-24T22:46:29.438Z,92.76
2017-11-24T22:48:56.966Z,91.42
2017-11-24T22:51:24.518Z,91.41
2017-11-24T22:53:52.013Z,92.05
2017-11-24T22:56:19.538Z,92.08
2017-11-24T22:58:47.079Z,92.54
2017-11-24T23:01:14.626Z,92.41
2017-11-24T23:03:42.225Z,92.83
2017-11-24T23:06:09.737Z,92.77
2017-11-24T23:08:37.230Z,93.01
2017-11-24T23:11:04.877Z,93.03
2017-11-24T23:13:32.377Z,92.84
2017-11-24T23:15:59.875Z,92.84
2017-11-24T23:18:27.425Z,93.39
2017-11-24T23:20:55.037Z,93.88
2017-11-24T23:23:22.525Z,93.43
2017-11-24T23:25:50.040Z,93.09
2017-11-24T23:28:17.607Z,92.88
2017-11-24T23:30:45.101Z,92.75
2017-11-24T23:33:12.736Z,92.80
2017-11-24T23:35:40.290Z,92.86
2017-11-24T23:38:07.825Z,92.60
2017-11-24T23:40:35.325Z,92.69
2017-11-24T23:43:02.868Z,92.87
2017-11-24T23:45:30.371Z,92.75
2017-11-24T23:47:57.864Z,92.72
2017-11-24T23:50:25.392Z,92.69
2017-11-24T23:52:52.885Z,92.85
2017-11-24T23:55:20.382Z,92.59
2017-11-24T23:57:47.909Z,92.54
